Ghaziabad Weather



Ghaziabad's Current Weather

Temprature 44.25o clear sky

clear sky

Rain: 0 %

Min Temprature44.25o
Max Temprature44.25o
Humidity13
Wind Speed1.6 m/h
Sun Rise05:08:30
Sun Set19:14:42
Current Time: 26-Jun-2019 15:54:42
Lat/Lon: 30.4, 72.76




Ghaziabad's Geo Location



Ghaziabad's Weather Forecast

Time Overall Temp Min Temp Max Temp Humidity Wind Speed Rain
26-Jun-2019 (Wed)
17:00:00 clear sky 44.400 44.250 44.400 13 1.6 m/h 0 %
20:00:00 clear sky 38.560 38.447 38.560 23 4.97 m/h 0 %
23:00:00 clear sky 36.920 36.840 36.920 27 2.09 m/h 0 %
27-Jun-2019 (Thu)
02:00:00 clear sky 35.520 35.479 35.520 27 3.03 m/h 0 %
05:00:00 clear sky 34.465 34.465 34.465 29 2.39 m/h 0 %
08:00:00 clear sky 39.050 39.050 39.050 28 5.24 m/h 0 %
11:00:00 clear sky 44.774 44.774 44.774 17 6.11 m/h 0 %
14:00:00 clear sky 46.750 46.750 46.750 12 5.01 m/h 0 %
17:00:00 scattered clouds 37.680 37.680 37.680 23 6.07 m/h 0 %
20:00:00 broken clouds 38.294 38.294 38.294 21 8.55 m/h 0 %
23:00:00 scattered clouds 37.035 37.035 37.035 23 3.5 m/h 0 %
28-Jun-2019 (Fri)
02:00:00 clear sky 35.628 35.628 35.628 26 3.96 m/h 0 %
05:00:00 clear sky 34.328 34.328 34.328 32 4.78 m/h 0 %
08:00:00 clear sky 36.989 36.989 36.989 34 5.16 m/h 0 %
11:00:00 clear sky 42.625 42.625 42.625 20 4.91 m/h 0 %
14:00:00 clear sky 45.431 45.431 45.431 15 4.63 m/h 0 %
17:00:00 clear sky 45.450 45.450 45.450 14 4.85 m/h 0 %
20:00:00 clear sky 41.450 41.450 41.450 18 4.93 m/h 0 %
23:00:00 clear sky 39.372 39.372 39.372 22 6.81 m/h 0 %
29-Jun-2019 (Sat)
02:00:00 clear sky 37.272 37.272 37.272 26 5.34 m/h 0 %
05:00:00 clear sky 34.989 34.989 34.989 36 6.75 m/h 0 %
08:00:00 clear sky 36.327 36.327 36.327 35 7.6 m/h 0 %
11:00:00 clear sky 42.950 42.950 42.950 20 6.67 m/h 0 %
14:00:00 clear sky 46.450 46.450 46.450 13 6.02 m/h 0 %
17:00:00 clear sky 46.091 46.091 46.091 11 5.71 m/h 0 %
20:00:00 clear sky 41.150 41.150 41.150 15 4.54 m/h 0 %
23:00:00 clear sky 39.150 39.150 39.150 20 5.98 m/h 0 %
30-Jun-2019 (Sun)
02:00:00 clear sky 37.176 37.176 37.176 25 6.55 m/h 0 %
05:00:00 clear sky 34.932 34.932 34.932 41 7.54 m/h 0 %
08:00:00 clear sky 36.132 36.132 36.132 42 7.73 m/h 0 %
11:00:00 clear sky 42.718 42.718 42.718 24 7.11 m/h 0 %
14:00:00 clear sky 47.009 47.009 47.009 13 5.85 m/h 0 %
17:00:00 clear sky 46.150 46.150 46.150 13 5.85 m/h 0 %
20:00:00 clear sky 41.750 41.750 41.750 17 5.92 m/h 0 %
23:00:00 clear sky 39.650 39.650 39.650 19 6.02 m/h 0 %
01-Jul-2019 (Mon)
02:00:00 clear sky 37.850 37.850 37.850 23 6.71 m/h 0 %
05:00:00 clear sky 34.935 34.935 34.935 47 7.63 m/h 0 %
08:00:00 clear sky 35.350 35.350 35.350 46 8.16 m/h 0 %
11:00:00 clear sky 42.150 42.150 42.150 27 7.39 m/h 0 %
14:00:00 clear sky 47.150 47.150 47.150 13 5.42 m/h 0 %

Famous Cities (60)